createdAt,value
2018-07-02T16:30:02.169Z,45.71
2018-07-02T16:31:02.149Z,45.71
2018-07-02T16:32:02.089Z,46.11
2018-07-02T16:33:02.064Z,46.01
2018-07-02T16:34:02.032Z,46.31
2018-07-02T16:35:03.720Z,45.71
2018-07-02T16:36:03.755Z,45.40
2018-07-02T16:37:03.722Z,45.51
2018-07-02T16:38:03.720Z,45.39
2018-07-02T16:39:03.723Z,45.40
2018-07-02T16:40:03.735Z,45.81
2018-07-02T16:41:03.758Z,45.51
2018-07-02T16:42:03.768Z,45.78
2018-07-02T16:43:03.729Z,45.29
2018-07-02T16:44:03.728Z,45.29
2018-07-02T16:45:03.722Z,45.48
2018-07-02T16:46:03.745Z,45.59
2018-07-02T16:48:39.984Z,46.08
2018-07-02T16:49:39.944Z,45.81
2018-07-02T16:50:39.935Z,45.90
2018-07-02T16:51:39.869Z,45.71
2018-07-02T16:52:39.830Z,45.90
2018-07-02T16:53:39.788Z,45.90
2018-07-02T16:54:39.756Z,46.11
2018-07-02T16:55:39.743Z,45.81
2018-07-02T16:56:39.661Z,45.98
2018-07-02T16:57:39.621Z,45.89
2018-07-02T16:58:39.581Z,45.68
2018-07-02T17:00:36.430Z,48.91
2018-07-02T17:01:36.448Z,49.63
2018-07-02T17:02:36.407Z,49.75
2018-07-02T17:03:36.397Z,50.47
2018-07-02T17:04:36.387Z,50.07
2018-07-02T17:05:36.374Z,51.07
2018-07-02T17:06:36.394Z,51.50
2018-07-02T17:07:36.354Z,51.50
2018-07-02T17:08:36.346Z,50.20
2018-07-02T17:09:36.335Z,51.50
2018-07-02T17:10:36.321Z,50.97
2018-07-02T17:11:50.507Z,49.15
2018-07-02T17:12:50.435Z,46.01
2018-07-02T17:13:50.379Z,45.79
